sensor_id;sensor_type;location;lat;lon;timestamp;P1;durP1;ratioP1;P2;durP2;ratioP2
80101;SDS011;69407;44.966;19.622;2023-05-10T00:00:16;12.82;;;4.97;;
80101;SDS011;69407;44.966;19.622;2023-05-10T00:02:42;8.25;;;4.13;;
80101;SDS011;69407;44.966;19.622;2023-05-10T00:05:07;9.32;;;4.07;;
80101;SDS011;69407;44.966;19.622;2023-05-10T00:07:34;9.25;;;4.63;;
80101;SDS011;69407;44.966;19.622;2023-05-10T00:10:00;8.35;;;4.60;;
80101;SDS011;69407;44.966;19.622;2023-05-10T00:12:25;8.43;;;4.88;;
80101;SDS011;69407;44.966;19.622;2023-05-10T00:14:50;12.27;;;4.97;;
80101;SDS011;69407;44.966;19.622;2023-05-10T00:17:16;8.98;;;4.45;;
80101;SDS011;69407;44.966;19.622;2023-05-10T00:19:41;8.45;;;5.07;;
80101;SDS011;69407;44.966;19.622;2023-05-10T00:22:07;10.65;;;4.55;;
80101;SDS011;69407;44.966;19.622;2023-05-10T00:24:32;8.73;;;5.18;;
80101;SDS011;69407;44.966;19.622;2023-05-10T00:26:58;13.48;;;5.57;;
80101;SDS011;69407;44.966;19.622;2023-05-10T00:29:23;11.27;;;4.30;;
80101;SDS011;69407;44.966;19.622;2023-05-10T00:31:49;9.82;;;4.30;;
80101;SDS011;69407;44.966;19.622;2023-05-10T00:34:14;9.68;;;4.80;;
80101;SDS011;69407;44.966;19.622;2023-05-10T00:36:40;10.82;;;5.03;;
80101;SDS011;69407;44.966;19.622;2023-05-10T00:39:05;8.45;;;4.25;;
80101;SDS011;69407;44.966;19.622;2023-05-10T00:41:31;9.80;;;4.30;;
80101;SDS011;69407;44.966;19.622;2023-05-10T00:43:58;7.60;;;4.47;;
80101;SDS011;69407;44.966;19.622;2023-05-10T00:46:23;9.60;;;4.82;;
80101;SDS011;69407;44.966;19.622;2023-05-10T00:48:50;8.57;;;4.57;;
80101;SDS011;69407;44.966;19.622;2023-05-10T00:51:15;8.52;;;3.83;;
80101;SDS011;69407;44.966;19.622;2023-05-10T00:53:41;10.50;;;4.30;;
80101;SDS011;69407;44.966;19.622;2023-05-10T00:56:07;7.95;;;4.70;;
80101;SDS011;69407;44.966;19.622;2023-05-10T00:58:33;7.03;;;4.13;;
80101;SDS011;69407;44.966;19.622;2023-05-10T01:00:58;8.57;;;4.55;;
80101;SDS011;69407;44.966;19.622;2023-05-10T01:03:25;8.43;;;4.30;;
80101;SDS011;69407;44.966;19.622;2023-05-10T01:05:51;8.50;;;4.57;;
80101;SDS011;69407;44.966;19.622;2023-05-10T01:08:16;6.55;;;3.97;;
80101;SDS011;69407;44.966;19.622;2023-05-10T01:10:42;7.93;;;4.07;;
80101;SDS011;69407;44.966;19.622;2023-05-10T01:13:09;8.10;;;4.35;;
80101;SDS011;69407;44.966;19.622;2023-05-10T01:15:34;10.32;;;5.13;;
80101;SDS011;69407;44.966;19.622;2023-05-10T01:18:01;8.05;;;4.53;;
80101;SDS011;69407;44.966;19.622;2023-05-10T01:20:29;10.00;;;4.60;;
80101;SDS011;69407;44.966;19.622;2023-05-10T01:29:39;8.88;;;4.85;;
80101;SDS011;69407;44.966;19.622;2023-05-10T01:34:35;12.10;;;4.97;;
80101;SDS011;69407;44.966;19.622;2023-05-10T01:37:13;10.65;;;5.53;;
80101;SDS011;69407;44.966;19.622;2023-05-10T01:39:53;12.75;;;5.88;;
80101;SDS011;69407;44.966;19.622;2023-05-10T01:42:25;10.05;;;5.55;;
80101;SDS011;69407;44.966;19.622;2023-05-10T01:48:10;9.55;;;6.20;;
80101;SDS011;69407;44.966;19.622;2023-05-10T01:50:39;10.65;;;6.28;;
80101;SDS011;69407;44.966;19.622;2023-05-10T01:53:08;13.00;;;6.28;;
80101;SDS011;69407;44.966;19.622;2023-05-10T01:55:39;9.27;;;6.05;;
80101;SDS011;69407;44.966;19.622;2023-05-10T01:58:09;12.18;;;6.78;;
80101;SDS011;69407;44.966;19.622;2023-05-10T02:00:39;12.15;;;6.53;;
80101;SDS011;69407;44.966;19.622;2023-05-10T02:03:07;10.82;;;5.78;;
80101;SDS011;69407;44.966;19.622;2023-05-10T02:05:35;13.07;;;6.55;;
80101;SDS011;69407;44.966;19.622;2023-05-10T02:08:03;13.13;;;6.32;;
80101;SDS011;69407;44.966;19.622;2023-05-10T02:10:32;12.48;;;6.10;;
80101;SDS011;69407;44.966;19.622;2023-05-10T02:12:59;29.52;;;7.00;;
80101;SDS011;69407;44.966;19.622;2023-05-10T02:15:26;11.98;;;5.82;;
80101;SDS011;69407;44.966;19.622;2023-05-10T02:17:56;13.15;;;6.70;;
80101;SDS011;69407;44.966;19.622;2023-05-10T02:20:23;10.57;;;5.93;;
80101;SDS011;69407;44.966;19.622;2023-05-10T02:22:51;10.32;;;6.07;;
80101;SDS011;69407;44.966;19.622;2023-05-10T02:25:19;12.55;;;5.80;;
80101;SDS011;69407;44.966;19.622;2023-05-10T02:27:46;13.73;;;5.38;;
80101;SDS011;69407;44.966;19.622;2023-05-10T02:30:13;10.32;;;5.15;;
80101;SDS011;69407;44.966;19.622;2023-05-10T02:32:39;9.32;;;5.60;;
80101;SDS011;69407;44.966;19.622;2023-05-10T02:35:06;9.85;;;5.57;;
80101;SDS011;69407;44.966;19.622;2023-05-10T02:37:33;8.77;;;5.10;;
80101;SDS011;69407;44.966;19.622;2023-05-10T02:40:00;9.77;;;4.65;;
80101;SDS011;69407;44.966;19.622;2023-05-10T02:42:29;11.80;;;5.75;;
80101;SDS011;69407;44.966;19.622;2023-05-10T02:44:59;14.50;;;5.15;;
80101;SDS011;69407;44.966;19.622;2023-05-10T02:47:28;11.82;;;5.68;;
80101;SDS011;69407;44.966;19.622;2023-05-10T02:49:54;11.77;;;5.90;;
80101;SDS011;69407;44.966;19.622;2023-05-10T02:52:21;8.48;;;4.82;;
80101;SDS011;69407;44.966;19.622;2023-05-10T02:54:52;8.50;;;4.82;;
80101;SDS011;69407;44.966;19.622;2023-05-10T02:57:23;9.65;;;5.47;;
80101;SDS011;69407;44.966;19.622;2023-05-10T02:59:52;8.10;;;5.05;;
80101;SDS011;69407;44.966;19.622;2023-05-10T03:02:18;10.25;;;5.65;;
80101;SDS011;69407;44.966;19.622;2023-05-10T03:04:45;10.10;;;5.88;;
80101;SDS011;69407;44.966;19.622;2023-05-10T03:07:10;9.32;;;5.45;;
80101;SDS011;69407;44.966;19.622;2023-05-10T03:09:36;12.18;;;5.25;;
80101;SDS011;69407;44.966;19.622;2023-05-10T03:12:11;9.45;;;5.00;;
80101;SDS011;69407;44.966;19.622;2023-05-10T03:20:12;9.90;;;4.60;;
80101;SDS011;69407;44.966;19.622;2023-05-10T03:25:44;9.18;;;4.57;;
80101;SDS011;69407;44.966;19.622;2023-05-10T03:28:12;10.43;;;5.05;;
80101;SDS011;69407;44.966;19.622;2023-05-10T03:30:39;10.13;;;4.30;;
80101;SDS011;69407;44.966;19.622;2023-05-10T03:33:06;10.05;;;5.15;;
80101;SDS011;69407;44.966;19.622;2023-05-10T03:35:32;9.50;;;5.50;;
80101;SDS011;69407;44.966;19.622;2023-05-10T03:37:57;9.18;;;4.82;;
80101;SDS011;69407;44.966;19.622;2023-05-10T03:40:23;9.43;;;5.05;;
80101;SDS011;69407;44.966;19.622;2023-05-10T03:42:50;9.88;;;5.28;;
80101;SDS011;69407;44.966;19.622;2023-05-10T03:45:15;9.38;;;4.93;;
80101;SDS011;69407;44.966;19.622;2023-05-10T03:47:41;11.48;;;4.72;;
80101;SDS011;69407;44.966;19.622;2023-05-10T03:50:06;11.02;;;4.60;;
80101;SDS011;69407;44.966;19.622;2023-05-10T03:52:32;10.07;;;4.50;;
80101;SDS011;69407;44.966;19.622;2023-05-10T03:54:58;6.60;;;4.15;;
80101;SDS011;69407;44.966;19.622;2023-05-10T03:57:23;10.60;;;5.00;;
80101;SDS011;69407;44.966;19.622;2023-05-10T03:59:49;9.52;;;4.70;;
80101;SDS011;69407;44.966;19.622;2023-05-10T04:02:15;10.25;;;4.90;;
80101;SDS011;69407;44.966;19.622;2023-05-10T04:04:40;10.20;;;4.78;;
80101;SDS011;69407;44.966;19.622;2023-05-10T04:07:06;7.90;;;4.20;;
80101;SDS011;69407;44.966;19.622;2023-05-10T04:09:31;7.70;;;4.60;;
80101;SDS011;69407;44.966;19.622;2023-05-10T04:11:58;9.35;;;4.47;;
80101;SDS011;69407;44.966;19.622;2023-05-10T04:14:24;10.45;;;4.55;;
80101;SDS011;69407;44.966;19.622;2023-05-10T04:16:49;8.20;;;4.18;;
80101;SDS011;69407;44.966;19.622;2023-05-10T04:19:15;8.15;;;3.90;;
80101;SDS011;69407;44.966;19.622;2023-05-10T04:21:40;7.20;;;3.90;;
80101;SDS011;69407;44.966;19.622;2023-05-10T04:24:06;10.30;;;4.55;;
80101;SDS011;69407;44.966;19.622;2023-05-10T04:26:33;8.30;;;4.47;;
80101;SDS011;69407;44.966;19.622;2023-05-10T04:28:58;7.63;;;3.92;;
80101;SDS011;69407;44.966;19.622;2023-05-10T04:31:24;6.47;;;3.72;;
80101;SDS011;69407;44.966;19.622;2023-05-10T04:33:49;6.38;;;3.60;;
80101;SDS011;69407;44.966;19.622;2023-05-10T04:36:15;12.13;;;4.07;;
80101;SDS011;69407;44.966;19.622;2023-05-10T04:38:40;9.25;;;4.43;;
80101;SDS011;69407;44.966;19.622;2023-05-10T04:41:07;8.18;;;4.30;;
80101;SDS011;69407;44.966;19.622;2023-05-10T04:43:33;7.43;;;4.00;;
80101;SDS011;69407;44.966;19.622;2023-05-10T04:45:59;7.82;;;4.07;;
80101;SDS011;69407;44.966;19.622;2023-05-10T04:48:24;6.43;;;4.03;;
80101;SDS011;69407;44.966;19.622;2023-05-10T04:50:50;8.63;;;3.72;;
80101;SDS011;69407;44.966;19.622;2023-05-10T04:53:16;12.40;;;3.83;;
80101;SDS011;69407;44.966;19.622;2023-05-10T04:55:41;6.68;;;3.80;;
80101;SDS011;69407;44.966;19.622;2023-05-10T04:58:07;5.93;;;3.75;;
80101;SDS011;69407;44.966;19.622;2023-05-10T05:00:32;11.68;;;4.28;;
80101;SDS011;69407;44.966;19.622;2023-05-10T05:02:58;6.65;;;4.40;;
80101;SDS011;69407;44.966;19.622;2023-05-10T05:05:24;8.68;;;4.20;;
80101;SDS011;69407;44.966;19.622;2023-05-10T05:07:49;7.35;;;3.60;;
80101;SDS011;69407;44.966;19.622;2023-05-10T05:10:15;8.45;;;4.28;;
80101;SDS011;69407;44.966;19.622;2023-05-10T05:12:40;8.35;;;3.65;;
80101;SDS011;69407;44.966;19.622;2023-05-10T05:15:06;6.45;;;3.63;;
80101;SDS011;69407;44.966;19.622;2023-05-10T05:17:33;5.57;;;3.17;;
80101;SDS011;69407;44.966;19.622;2023-05-10T05:19:58;5.63;;;3.50;;
80101;SDS011;69407;44.966;19.622;2023-05-10T05:22:24;7.32;;;3.33;;
80101;SDS011;69407;44.966;19.622;2023-05-10T05:24:53;8.13;;;3.15;;
80101;SDS011;69407;44.966;19.622;2023-05-10T05:27:22;8.43;;;2.90;;
80101;SDS011;69407;44.966;19.622;2023-05-10T05:29:52;7.38;;;3.00;;
80101;SDS011;69407;44.966;19.622;2023-05-10T05:32:19;6.05;;;3.10;;
80101;SDS011;69407;44.966;19.622;2023-05-10T05:34:45;5.70;;;2.92;;
80101;SDS011;69407;44.966;19.622;2023-05-10T05:37:14;8.10;;;3.40;;
80101;SDS011;69407;44.966;19.622;2023-05-10T05:39:40;6.43;;;2.70;;
80101;SDS011;69407;44.966;19.622;2023-05-10T05:42:05;5.30;;;2.80;;
80101;SDS011;69407;44.966;19.622;2023-05-10T05:44:30;5.90;;;3.00;;
80101;SDS011;69407;44.966;19.622;2023-05-10T05:46:56;4.30;;;2.35;;
80101;SDS011;69407;44.966;19.622;2023-05-10T05:49:22;5.60;;;2.58;;
80101;SDS011;69407;44.966;19.622;2023-05-10T05:51:47;6.28;;;2.60;;
80101;SDS011;69407;44.966;19.622;2023-05-10T05:54:14;5.88;;;3.00;;
80101;SDS011;69407;44.966;19.622;2023-05-10T05:56:40;8.35;;;3.08;;
80101;SDS011;69407;44.966;19.622;2023-05-10T05:59:05;6.93;;;3.40;;
80101;SDS011;69407;44.966;19.622;2023-05-10T06:01:30;7.40;;;3.22;;
80101;SDS011;69407;44.966;19.622;2023-05-10T06:03:56;9.27;;;2.97;;
80101;SDS011;69407;44.966;19.622;2023-05-10T06:06:21;9.45;;;4.53;;
80101;SDS011;69407;44.966;19.622;2023-05-10T06:08:47;5.05;;;2.78;;
80101;SDS011;69407;44.966;19.622;2023-05-10T06:11:12;9.35;;;4.45;;
80101;SDS011;69407;44.966;19.622;2023-05-10T06:13:38;17.65;;;3.92;;
80101;SDS011;69407;44.966;19.622;2023-05-10T06:16:03;6.45;;;2.67;;
80101;SDS011;69407;44.966;19.622;2023-05-10T06:18:29;7.85;;;3.17;;
80101;SDS011;69407;44.966;19.622;2023-05-10T06:20:55;6.65;;;2.92;;
80101;SDS011;69407;44.966;19.622;2023-05-10T06:23:21;4.82;;;2.80;;
80101;SDS011;69407;44.966;19.622;2023-05-10T06:25:47;5.13;;;2.92;;
80101;SDS011;69407;44.966;19.622;2023-05-10T06:28:12;9.25;;;3.17;;
80101;SDS011;69407;44.966;19.622;2023-05-10T06:30:38;5.63;;;2.28;;
80101;SDS011;69407;44.966;19.622;2023-05-10T06:33:03;4.65;;;2.80;;
80101;SDS011;69407;44.966;19.622;2023-05-10T06:35:29;4.20;;;2.53;;
80101;SDS011;69407;44.966;19.622;2023-05-10T06:37:54;4.75;;;2.55;;
80101;SDS011;69407;44.966;19.622;2023-05-10T06:40:20;5.15;;;2.13;;
80101;SDS011;69407;44.966;19.622;2023-05-10T06:42:46;5.25;;;2.13;;
80101;SDS011;69407;44.966;19.622;2023-05-10T06:45:12;3.80;;;2.45;;
80101;SDS011;69407;44.966;19.622;2023-05-10T06:47:39;6.60;;;2.45;;
80101;SDS011;69407;44.966;19.622;2023-05-10T06:50:05;3.72;;;2.10;;
80101;SDS011;69407;44.966;19.622;2023-05-10T06:52:32;4.72;;;1.98;;
80101;SDS011;69407;44.966;19.622;2023-05-10T06:54:57;3.28;;;1.90;;
80101;SDS011;69407;44.966;19.622;2023-05-10T06:57:23;4.50;;;1.98;;
80101;SDS011;69407;44.966;19.622;2023-05-10T07:00:08;5.32;;;2.65;;
80101;SDS011;69407;44.966;19.622;2023-05-10T07:02:35;3.50;;;1.90;;
80101;SDS011;69407;44.966;19.622;2023-05-10T07:05:00;3.65;;;1.80;;
80101;SDS011;69407;44.966;19.622;2023-05-10T07:07:27;3.90;;;2.00;;
80101;SDS011;69407;44.966;19.622;2023-05-10T07:09:52;5.22;;;1.77;;
80101;SDS011;69407;44.966;19.622;2023-05-10T07:12:18;4.07;;;1.60;;
80101;SDS011;69407;44.966;19.622;2023-05-10T07:14:43;4.10;;;1.73;;
80101;SDS011;69407;44.966;19.622;2023-05-10T07:17:09;5.53;;;1.40;;
80101;SDS011;69407;44.966;19.622;2023-05-10T07:19:34;5.50;;;2.40;;
80101;SDS011;69407;44.966;19.622;2023-05-10T07:22:00;5.70;;;1.40;;
80101;SDS011;69407;44.966;19.622;2023-05-10T07:24:26;5.13;;;2.03;;
80101;SDS011;69407;44.966;19.622;2023-05-10T07:26:52;8.75;;;1.70;;
80101;SDS011;69407;44.966;19.622;2023-05-10T07:29:17;2.63;;;1.33;;
80101;SDS011;69407;44.966;19.622;2023-05-10T07:31:43;3.85;;;1.75;;
80101;SDS011;69407;44.966;19.622;2023-05-10T07:34:08;4.18;;;1.55;;
80101;SDS011;69407;44.966;19.622;2023-05-10T07:36:34;10.70;;;1.85;;
80101;SDS011;69407;44.966;19.622;2023-05-10T07:39:00;8.50;;;1.80;;
80101;SDS011;69407;44.966;19.622;2023-05-10T07:41:25;6.28;;;1.77;;
80101;SDS011;69407;44.966;19.622;2023-05-10T07:43:51;6.63;;;2.05;;
80101;SDS011;69407;44.966;19.622;2023-05-10T07:46:17;4.13;;;1.80;;
80101;SDS011;69407;44.966;19.622;2023-05-10T07:48:44;4.65;;;2.30;;
80101;SDS011;69407;44.966;19.622;2023-05-10T07:51:09;4.05;;;2.00;;
80101;SDS011;69407;44.966;19.622;2023-05-10T07:53:35;4.57;;;1.40;;
80101;SDS011;69407;44.966;19.622;2023-05-10T07:56:19;5.07;;;3.25;;
80101;SDS011;69407;44.966;19.622;2023-05-10T07:58:47;4.00;;;2.22;;
80101;SDS011;69407;44.966;19.622;2023-05-10T08:01:13;5.35;;;2.03;;
80101;SDS011;69407;44.966;19.622;2023-05-10T08:03:39;3.35;;;3.05;;
80101;SDS011;69407;44.966;19.622;2023-05-10T08:06:04;3.25;;;2.95;;
80101;SDS011;69407;44.966;19.622;2023-05-10T08:08:30;3.05;;;2.00;;
80101;SDS011;69407;44.966;19.622;2023-05-10T08:10:56;3.13;;;2.05;;
80101;SDS011;69407;44.966;19.622;2023-05-10T08:13:21;5.55;;;1.13;;
80101;SDS011;69407;44.966;19.622;2023-05-10T08:15:47;4.60;;;3.28;;
80101;SDS011;69407;44.966;19.622;2023-05-10T08:18:12;5.43;;;2.00;;
80101;SDS011;69407;44.966;19.622;2023-05-10T08:20:38;4.72;;;1.83;;
80101;SDS011;69407;44.966;19.622;2023-05-10T08:23:04;4.53;;;4.03;;
80101;SDS011;69407;44.966;19.622;2023-05-10T08:25:29;4.53;;;2.05;;
80101;SDS011;69407;44.966;19.622;2023-05-10T08:27:56;6.25;;;1.92;;
80101;SDS011;69407;44.966;19.622;2023-05-10T08:30:21;6.00;;;2.28;;
80101;SDS011;69407;44.966;19.622;2023-05-10T08:32:47;5.18;;;1.35;;
80101;SDS011;69407;44.966;19.622;2023-05-10T08:35:12;6.63;;;1.75;;
80101;SDS011;69407;44.966;19.622;2023-05-10T08:37:38;5.03;;;1.73;;
80101;SDS011;69407;44.966;19.622;2023-05-10T08:40:03;3.67;;;1.90;;
80101;SDS011;69407;44.966;19.622;2023-05-10T08:42:30;6.53;;;1.90;;
80101;SDS011;69407;44.966;19.622;2023-05-10T08:45:00;5.35;;;1.88;;
80101;SDS011;69407;44.966;19.622;2023-05-10T08:47:27;2.65;;;1.60;;
80101;SDS011;69407;44.966;19.622;2023-05-10T08:49:54;5.50;;;2.42;;
80101;SDS011;69407;44.966;19.622;2023-05-10T08:52:20;4.88;;;1.95;;
80101;SDS011;69407;44.966;19.622;2023-05-10T08:54:48;4.75;;;1.80;;
80101;SDS011;69407;44.966;19.622;2023-05-10T08:57:14;8.65;;;1.98;;
80101;SDS011;69407;44.966;19.622;2023-05-10T08:59:39;11.13;;;1.98;;
80101;SDS011;69407;44.966;19.622;2023-05-10T09:02:05;3.30;;;1.40;;
80101;SDS011;69407;44.966;19.622;2023-05-10T09:04:32;2.55;;;1.40;;
80101;SDS011;69407;44.966;19.622;2023-05-10T09:06:57;2.42;;;1.38;;
80101;SDS011;69407;44.966;19.622;2023-05-10T09:09:23;5.13;;;1.80;;
80101;SDS011;69407;44.966;19.622;2023-05-10T09:11:50;4.00;;;1.63;;
80101;SDS011;69407;44.966;19.622;2023-05-10T09:14:16;15.20;;;2.15;;
80101;SDS011;69407;44.966;19.622;2023-05-10T09:16:43;9.98;;;1.90;;
80101;SDS011;69407;44.966;19.622;2023-05-10T09:19:08;14.00;;;3.00;;
80101;SDS011;69407;44.966;19.622;2023-05-10T09:21:37;4.15;;;1.67;;
80101;SDS011;69407;44.966;19.622;2023-05-10T09:24:07;5.93;;;1.58;;
80101;SDS011;69407;44.966;19.622;2023-05-10T09:26:33;4.03;;;2.13;;
80101;SDS011;69407;44.966;19.622;2023-05-10T09:29:00;4.25;;;1.50;;
80101;SDS011;69407;44.966;19.622;2023-05-10T09:34:29;3.53;;;2.08;;
80101;SDS011;69407;44.966;19.622;2023-05-10T09:36:56;6.53;;;2.17;;
80101;SDS011;69407;44.966;19.622;2023-05-10T09:42:02;4.38;;;1.75;;
80101;SDS011;69407;44.966;19.622;2023-05-10T09:44:30;3.35;;;1.63;;
80101;SDS011;69407;44.966;19.622;2023-05-10T09:46:56;3.53;;;1.55;;
80101;SDS011;69407;44.966;19.622;2023-05-10T09:49:22;5.15;;;1.88;;
80101;SDS011;69407;44.966;19.622;2023-05-10T09:51:54;3.08;;;1.70;;
80101;SDS011;69407;44.966;19.622;2023-05-10T09:54:25;6.15;;;1.33;;
80101;SDS011;69407;44.966;19.622;2023-05-10T09:56:50;2.75;;;1.25;;
80101;SDS011;69407;44.966;19.622;2023-05-10T09:59:16;6.95;;;2.10;;
80101;SDS011;69407;44.966;19.622;2023-05-10T10:01:42;2.40;;;1.30;;
80101;SDS011;69407;44.966;19.622;2023-05-10T10:04:14;4.00;;;1.55;;
80101;SDS011;69407;44.966;19.622;2023-05-10T10:06:39;3.97;;;1.60;;
80101;SDS011;69407;44.966;19.622;2023-05-10T10:09:06;8.13;;;1.20;;
80101;SDS011;69407;44.966;19.622;2023-05-10T10:11:34;6.32;;;1.65;;
80101;SDS011;69407;44.966;19.622;2023-05-10T10:14:02;2.53;;;1.10;;
80101;SDS011;69407;44.966;19.622;2023-05-10T10:16:29;4.70;;;0.85;;
80101;SDS011;69407;44.966;19.622;2023-05-10T10:18:55;2.00;;;1.27;;
80101;SDS011;69407;44.966;19.622;2023-05-10T10:21:21;2.53;;;1.10;;
80101;SDS011;69407;44.966;19.622;2023-05-10T10:23:48;5.97;;;1.20;;
80101;SDS011;69407;44.966;19.622;2023-05-10T10:26:14;13.73;;;1.70;;
80101;SDS011;69407;44.966;19.622;2023-05-10T10:34:00;3.45;;;1.33;;
80101;SDS011;69407;44.966;19.622;2023-05-10T10:36:29;3.42;;;1.13;;
80101;SDS011;69407;44.966;19.622;2023-05-10T10:39:00;7.25;;;1.38;;
80101;SDS011;69407;44.966;19.622;2023-05-10T10:41:27;2.22;;;1.00;;
80101;SDS011;69407;44.966;19.622;2023-05-10T10:49:27;2.55;;;1.38;;
80101;SDS011;69407;44.966;19.622;2023-05-10T10:55:05;4.00;;;1.70;;
80101;SDS011;69407;44.966;19.622;2023-05-10T11:00:23;3.72;;;1.50;;
80101;SDS011;69407;44.966;19.622;2023-05-10T11:02:50;4.68;;;1.13;;
80101;SDS011;69407;44.966;19.622;2023-05-10T11:07:57;2.05;;;1.10;;
80101;SDS011;69407;44.966;19.622;2023-05-10T11:10:25;3.75;;;1.40;;
80101;SDS011;69407;44.966;19.622;2023-05-10T11:15:18;7.47;;;1.10;;
80101;SDS011;69407;44.966;19.622;2023-05-10T11:17:44;4.22;;;1.25;;
80101;SDS011;69407;44.966;19.622;2023-05-10T11:20:13;3.65;;;0.82;;
80101;SDS011;69407;44.966;19.622;2023-05-10T11:22:49;5.32;;;1.27;;
80101;SDS011;69407;44.966;19.622;2023-05-10T11:25:18;3.15;;;0.85;;
80101;SDS011;69407;44.966;19.622;2023-05-10T11:27:44;2.42;;;0.82;;
80101;SDS011;69407;44.966;19.622;2023-05-10T11:30:10;4.50;;;1.33;;
80101;SDS011;69407;44.966;19.622;2023-05-10T11:32:39;2.85;;;1.25;;
80101;SDS011;69407;44.966;19.622;2023-05-10T11:35:08;2.78;;;1.10;;
80101;SDS011;69407;44.966;19.622;2023-05-10T11:37:35;1.73;;;0.88;;
80101;SDS011;69407;44.966;19.622;2023-05-10T11:40:00;1.30;;;0.90;;
80101;SDS011;69407;44.966;19.622;2023-05-10T11:42:27;3.75;;;1.15;;
80101;SDS011;69407;44.966;19.622;2023-05-10T11:44:53;3.20;;;1.02;;
80101;SDS011;69407;44.966;19.622;2023-05-10T11:47:19;2.75;;;1.10;;
80101;SDS011;69407;44.966;19.622;2023-05-10T11:49:45;2.85;;;1.73;;
80101;SDS011;69407;44.966;19.622;2023-05-10T11:52:11;4.20;;;0.95;;
80101;SDS011;69407;44.966;19.622;2023-05-10T11:54:37;4.72;;;0.93;;
80101;SDS011;69407;44.966;19.622;2023-05-10T11:57:03;3.58;;;1.35;;
80101;SDS011;69407;44.966;19.622;2023-05-10T11:59:31;2.22;;;0.80;;
80101;SDS011;69407;44.966;19.622;2023-05-10T12:01:57;2.47;;;1.10;;
80101;SDS011;69407;44.966;19.622;2023-05-10T12:04:23;2.50;;;0.90;;
80101;SDS011;69407;44.966;19.622;2023-05-10T12:06:48;4.38;;;1.42;;
80101;SDS011;69407;44.966;19.622;2023-05-10T12:09:14;4.35;;;1.20;;
80101;SDS011;69407;44.966;19.622;2023-05-10T12:11:40;3.45;;;0.57;;
80101;SDS011;69407;44.966;19.622;2023-05-10T12:14:06;11.80;;;1.23;;
80101;SDS011;69407;44.966;19.622;2023-05-10T12:16:31;4.70;;;0.73;;
80101;SDS011;69407;44.966;19.622;2023-05-10T12:18:58;3.35;;;0.85;;
80101;SDS011;69407;44.966;19.622;2023-05-10T12:21:25;9.57;;;0.80;;
80101;SDS011;69407;44.966;19.622;2023-05-10T12:26:22;12.20;;;1.73;;
80101;SDS011;69407;44.966;19.622;2023-05-10T12:28:49;4.13;;;0.75;;
80101;SDS011;69407;44.966;19.622;2023-05-10T12:31:15;7.85;;;1.08;;
80101;SDS011;69407;44.966;19.622;2023-05-10T12:33:41;8.27;;;1.05;;
80101;SDS011;69407;44.966;19.622;2023-05-10T12:36:08;3.10;;;0.60;;
80101;SDS011;69407;44.966;19.622;2023-05-10T12:38:36;8.43;;;1.38;;
80101;SDS011;69407;44.966;19.622;2023-05-10T12:43:52;7.13;;;1.20;;
80101;SDS011;69407;44.966;19.622;2023-05-10T12:46:17;9.65;;;2.22;;
80101;SDS011;69407;44.966;19.622;2023-05-10T12:48:44;5.30;;;1.00;;
80101;SDS011;69407;44.966;19.622;2023-05-10T12:51:11;7.82;;;2.00;;
80101;SDS011;69407;44.966;19.622;2023-05-10T12:53:41;5.78;;;0.60;;
80101;SDS011;69407;44.966;19.622;2023-05-10T12:56:06;5.32;;;0.98;;
80101;SDS011;69407;44.966;19.622;2023-05-10T12:58:32;5.90;;;0.52;;
80101;SDS011;69407;44.966;19.622;2023-05-10T13:01:17;1.75;;;0.70;;
80101;SDS011;69407;44.966;19.622;2023-05-10T13:03:43;1.63;;;0.80;;
80101;SDS011;69407;44.966;19.622;2023-05-10T13:06:08;6.28;;;1.00;;
80101;SDS011;69407;44.966;19.622;2023-05-10T13:08:34;1.70;;;0.90;;
80101;SDS011;69407;44.966;19.622;2023-05-10T13:11:00;11.40;;;1.02;;
80101;SDS011;69407;44.966;19.622;2023-05-10T13:13:46;1.40;;;0.80;;
80101;SDS011;69407;44.966;19.622;2023-05-10T13:16:12;3.60;;;1.33;;
80101;SDS011;69407;44.966;19.622;2023-05-10T13:18:37;1.30;;;0.50;;
80101;SDS011;69407;44.966;19.622;2023-05-10T13:21:02;6.00;;;0.98;;
80101;SDS011;69407;44.966;19.622;2023-05-10T13:23:30;1.65;;;0.73;;
80101;SDS011;69407;44.966;19.622;2023-05-10T13:25:55;5.07;;;0.82;;
80101;SDS011;69407;44.966;19.622;2023-05-10T13:28:21;2.90;;;0.80;;
80101;SDS011;69407;44.966;19.622;2023-05-10T13:30:46;5.05;;;1.00;;
80101;SDS011;69407;44.966;19.622;2023-05-10T13:33:12;10.93;;;3.55;;
80101;SDS011;69407;44.966;19.622;2023-05-10T13:35:37;5.93;;;3.20;;
80101;SDS011;69407;44.966;19.622;2023-05-10T13:38:03;7.40;;;1.65;;
80101;SDS011;69407;44.966;19.622;2023-05-10T13:40:28;5.80;;;1.80;;
80101;SDS011;69407;44.966;19.622;2023-05-10T13:42:54;6.47;;;1.48;;
80101;SDS011;69407;44.966;19.622;2023-05-10T13:45:19;3.05;;;0.70;;
80101;SDS011;69407;44.966;19.622;2023-05-10T13:47:45;5.65;;;0.82;;
80101;SDS011;69407;44.966;19.622;2023-05-10T13:50:10;6.15;;;1.38;;
80101;SDS011;69407;44.966;19.622;2023-05-10T13:52:36;10.95;;;1.50;;
80101;SDS011;69407;44.966;19.622;2023-05-10T13:55:01;11.02;;;1.55;;
80101;SDS011;69407;44.966;19.622;2023-05-10T13:57:26;3.80;;;0.70;;
80101;SDS011;69407;44.966;19.622;2023-05-10T13:59:53;5.63;;;1.17;;
80101;SDS011;69407;44.966;19.622;2023-05-10T14:02:19;3.47;;;0.65;;
80101;SDS011;69407;44.966;19.622;2023-05-10T14:04:45;3.95;;;1.00;;
80101;SDS011;69407;44.966;19.622;2023-05-10T14:07:10;2.33;;;0.82;;
80101;SDS011;69407;44.966;19.622;2023-05-10T14:09:36;3.72;;;1.20;;
80101;SDS011;69407;44.966;19.622;2023-05-10T14:12:01;8.18;;;1.00;;
80101;SDS011;69407;44.966;19.622;2023-05-10T14:14:27;5.65;;;1.15;;
80101;SDS011;69407;44.966;19.622;2023-05-10T14:16:54;6.15;;;2.25;;
80101;SDS011;69407;44.966;19.622;2023-05-10T14:19:20;2.55;;;0.60;;
80101;SDS011;69407;44.966;19.622;2023-05-10T14:21:45;5.63;;;0.82;;
80101;SDS011;69407;44.966;19.622;2023-05-10T14:24:11;13.68;;;1.30;;
80101;SDS011;69407;44.966;19.622;2023-05-10T14:26:36;6.10;;;1.15;;
80101;SDS011;69407;44.966;19.622;2023-05-10T14:29:02;6.30;;;1.65;;
80101;SDS011;69407;44.966;19.622;2023-05-10T14:31:27;10.82;;;1.02;;
80101;SDS011;69407;44.966;19.622;2023-05-10T14:33:55;3.67;;;1.00;;
80101;SDS011;69407;44.966;19.622;2023-05-10T14:36:21;5.90;;;0.98;;
80101;SDS011;69407;44.966;19.622;2023-05-10T14:38:46;6.57;;;1.00;;
80101;SDS011;69407;44.966;19.622;2023-05-10T14:41:11;3.72;;;1.02;;
80101;SDS011;69407;44.966;19.622;2023-05-10T14:43:39;10.68;;;1.23;;
80101;SDS011;69407;44.966;19.622;2023-05-10T14:46:06;4.90;;;0.90;;
80101;SDS011;69407;44.966;19.622;2023-05-10T14:48:31;6.85;;;0.90;;
80101;SDS011;69407;44.966;19.622;2023-05-10T14:50:57;3.75;;;0.70;;
80101;SDS011;69407;44.966;19.622;2023-05-10T14:53:22;3.45;;;0.82;;
80101;SDS011;69407;44.966;19.622;2023-05-10T14:55:48;3.03;;;1.08;;
80101;SDS011;69407;44.966;19.622;2023-05-10T14:58:13;1.98;;;0.70;;
80101;SDS011;69407;44.966;19.622;2023-05-10T15:00:40;5.70;;;0.73;;
80101;SDS011;69407;44.966;19.622;2023-05-10T15:03:06;6.47;;;1.67;;
80101;SDS011;69407;44.966;19.622;2023-05-10T15:05:31;9.20;;;2.03;;
80101;SDS011;69407;44.966;19.622;2023-05-10T15:07:57;17.75;;;1.55;;
80101;SDS011;69407;44.966;19.622;2023-05-10T15:10:22;10.10;;;0.82;;
80101;SDS011;69407;44.966;19.622;2023-05-10T15:12:47;10.32;;;0.68;;
80101;SDS011;69407;44.966;19.622;2023-05-10T15:15:13;4.82;;;0.90;;
80101;SDS011;69407;44.966;19.622;2023-05-10T15:17:38;10.20;;;3.58;;
80101;SDS011;69407;44.966;19.622;2023-05-10T15:20:04;3.22;;;1.08;;